Time;durP1;ratioP1;P1;durP2;ratioP2;P2;SDS_P1;SDS_P2;PMS_P1;PMS_P2;Temp;Humidity;BMP_temperature;BMP_pressure;BME280_temperature;BME280_humidity;BME280_pressure;Samples;Min_cycle;Max_cycle;Signal;HPM_P1;HPM_P2
2023/12/27 00:00:53;;;;;;;7.80;4.88;;;4.30;68.20;;;-0.78;100.00;96118.03;5029551;28;20100;-51
2023/12/27 00:03:18;;;;;;;11.20;5.25;;;4.30;68.20;;;-0.76;100.00;96119.47;5030199;28;20036;-49
2023/12/27 00:05:44;;;;;;;11.40;5.72;;;4.40;68.40;;;-0.68;100.00;96110.72;5028543;28;20025;-48
2023/12/27 00:08:10;;;;;;;9.38;4.90;;;4.40;68.40;;;-0.64;100.00;96098.91;5029285;28;20135;-51
2023/12/27 00:10:36;;;;;;;13.60;5.07;;;4.40;68.40;;;-0.58;100.00;96094.75;5030209;28;20086;-51
2023/12/27 00:13:02;;;;;;;12.93;6.00;;;4.40;68.40;;;-0.56;100.00;96083.13;5029011;28;20052;-48
2023/12/27 00:15:28;;;;;;;9.32;5.55;;;4.50;68.60;;;-0.50;100.00;96085.00;5030021;28;20025;-48
2023/12/27 00:17:53;;;;;;;11.57;5.05;;;4.50;68.70;;;-0.45;100.00;96094.91;5024301;28;20029;-48
2023/12/27 00:20:19;;;;;;;9.32;5.15;;;4.60;68.80;;;-0.41;100.00;96097.97;5030635;28;20364;-50
2023/12/27 00:22:45;;;;;;;12.07;5.25;;;4.60;68.70;;;-0.38;100.00;96101.03;5030263;28;20036;-49
2023/12/27 00:25:11;;;;;;;9.10;5.28;;;4.60;68.70;;;-0.36;100.00;96101.66;5028943;28;20496;-50
2023/12/27 00:27:37;;;;;;;7.93;5.10;;;4.70;68.70;;;-0.35;100.00;96100.66;5029390;28;20021;-48
2023/12/27 00:30:04;;;;;;;8.98;5.10;;;4.70;68.60;;;-0.32;100.00;96094.25;5028534;28;20025;-48
2023/12/27 00:32:30;;;;;;;6.78;4.57;;;4.70;68.50;;;-0.31;100.00;96107.16;5030058;28;20021;-50
2023/12/27 00:34:56;;;;;;;9.98;5.25;;;4.70;68.50;;;-0.31;100.00;96107.16;5029638;28;20094;-48
2023/12/27 00:37:22;;;;;;;9.20;4.72;;;4.80;68.60;;;-0.30;100.00;96100.94;5028205;28;20411;-48
2023/12/27 00:39:48;;;;;;;8.55;5.28;;;4.80;68.50;;;-0.28;100.00;96100.75;5025823;28;20128;-48
2023/12/27 00:42:14;;;;;;;7.32;4.47;;;4.80;68.50;;;-0.30;100.00;96105.34;5028475;28;20382;-48
2023/12/27 00:44:39;;;;;;;10.20;4.63;;;4.80;68.40;;;-0.32;100.00;96115.19;5029726;28;20071;-48
2023/12/27 00:47:05;;;;;;;6.78;4.30;;;4.80;68.40;;;-0.32;100.00;96116.00;5027575;28;20029;-49
2023/12/27 00:49:31;;;;;;;8.43;4.45;;;4.80;68.30;;;-0.33;100.00;96109.16;5029106;28;20035;-48
2023/12/27 00:51:57;;;;;;;7.97;4.63;;;4.70;68.20;;;-0.36;100.00;96109.50;5030278;28;20055;-48
2023/12/27 00:54:23;;;;;;;6.78;4.63;;;4.70;68.20;;;-0.39;100.00;96101.22;5030163;28;20025;-51
2023/12/27 00:56:49;;;;;;;10.43;4.95;;;4.70;68.20;;;-0.47;100.00;96102.97;5034598;28;20062;-51
2023/12/27 00:59:15;;;;;;;10.52;6.20;;;4.70;68.30;;;-0.43;100.00;96100.78;5029968;28;20033;-52
2023/12/27 01:01:43;;;;;;;7.85;4.70;;;4.70;68.30;;;-0.44;100.00;96108.81;5032902;28;20024;-51
2023/12/27 01:04:09;;;;;;;9.63;4.50;;;4.70;68.30;;;-0.43;100.00;96102.59;5034118;28;20487;-49
2023/12/27 01:06:35;;;;;;;9.75;4.75;;;4.70;68.30;;;-0.44;100.00;96088.66;5033491;28;20024;-51
2023/12/27 01:09:01;;;;;;;11.25;4.55;;;4.70;68.30;;;-0.47;100.00;96079.41;5034285;28;20025;-48
2023/12/27 01:11:27;;;;;;;9.07;4.93;;;4.60;68.20;;;-0.49;100.00;96081.38;5033384;28;20107;-49
2023/12/27 01:13:53;;;;;;;12.45;4.63;;;4.60;68.20;;;-0.54;100.00;96073.25;5034422;28;20055;-51
2023/12/27 01:16:19;;;;;;;7.78;4.47;;;4.60;68.30;;;-0.57;100.00;96081.47;5034213;28;20443;-53
2023/12/27 01:18:45;;;;;;;8.18;4.47;;;4.50;68.20;;;-0.59;100.00;96080.84;5032411;28;20123;-51
2023/12/27 01:21:13;;;;;;;8.75;4.80;;;4.50;68.30;;;-0.63;100.00;96086.63;5033755;28;20021;-51
2023/12/27 01:23:39;;;;;;;9.48;4.40;;;4.50;68.40;;;-0.61;100.00;96088.06;5033072;28;20086;-51
2023/12/27 01:26:05;;;;;;;7.57;4.68;;;4.50;68.40;;;-0.71;100.00;96090.16;5034032;28;20360;-51
2023/12/27 01:28:30;;;;;;;7.00;4.70;;;4.50;68.40;;;-0.75;100.00;96094.13;5033981;28;20086;-48
2023/12/27 01:30:56;;;;;;;8.25;4.22;;;4.40;68.40;;;-0.70;100.00;96102.25;5032764;28;20033;-49
2023/12/27 01:33:22;;;;;;;8.98;4.70;;;4.50;68.40;;;-0.72;100.00;96105.06;5033647;28;20029;-50
2023/12/27 01:35:48;;;;;;;7.50;4.45;;;4.40;68.40;;;-0.70;100.00;96099.63;5032965;28;20429;-50
2023/12/27 01:38:14;;;;;;;10.63;5.07;;;4.40;68.40;;;-0.72;100.00;96094.59;5033398;28;20044;-50
2023/12/27 01:40:51;;;;;;;8.30;5.18;;;4.40;68.50;;;-0.70;100.00;96097.00;5033771;28;20028;-51
2023/12/27 01:43:17;;;;;;;9.07;4.85;;;4.40;68.50;;;-0.68;100.00;96092.41;5028946;28;20033;-50
2023/12/27 01:45:47;;;;;;;8.82;5.00;;;4.40;68.50;;;-0.67;100.00;96093.22;5033486;28;20047;-51
2023/12/27 01:48:13;;;;;;;9.75;5.00;;;4.30;68.60;;;-0.66;100.00;96089.59;5028217;28;20028;-47
2023/12/27 01:50:39;;;;;;;7.40;4.85;;;4.30;68.60;;;-0.76;100.00;96087.25;5033697;28;20045;-49
2023/12/27 01:53:08;;;;;;;9.32;4.68;;;4.30;68.60;;;-0.76;100.00;96088.06;5032062;28;20025;-48
2023/12/27 01:55:35;;;;;;;10.90;5.28;;;4.30;68.60;;;-0.80;100.00;96078.16;5027948;28;20131;-50
2023/12/27 01:58:08;;;;;;;9.43;5.07;;;4.30;68.60;;;-0.83;100.00;96084.56;5028314;28;20114;-47
2023/12/27 02:00:40;;;;;;;;;;;4.30;68.60;;;-0.86;100.00;96091.97;5027479;28;20511;-47
2023/12/27 02:03:14;;;;;;;9.60;4.72;;;4.30;68.40;;;-0.88;100.00;96086.91;5032189;28;19958;-51
2023/12/27 02:05:41;;;;;;;10.45;5.50;;;4.20;68.40;;;-0.87;100.00;96088.53;5029438;28;20026;-48
2023/12/27 02:08:11;;;;;;;13.98;5.90;;;4.20;68.50;;;-0.88;100.00;96083.47;5030786;28;20029;-47
2023/12/27 02:10:38;;;;;;;8.50;5.25;;;4.20;68.60;;;-0.86;100.00;96086.72;5028619;28;20115;-48
2023/12/27 02:13:06;;;;;;;8.77;5.25;;;4.20;68.70;;;-0.86;100.00;96087.53;5025410;28;20127;-49
2023/12/27 02:15:34;;;;;;;8.93;5.65;;;4.20;68.80;;;-0.83;100.00;96089.00;5033025;28;20031;-50
2023/12/27 02:18:04;;;;;;;9.80;5.53;;;4.20;68.80;;;-0.81;100.00;96081.78;5031796;28;20116;-47
2023/12/27 02:20:30;;;;;;;11.80;5.45;;;4.30;68.90;;;-0.82;100.00;96075.72;5028467;28;20399;-49
2023/12/27 02:23:01;;;;;;;8.93;5.35;;;4.20;68.90;;;-0.84;100.00;96080.34;5030180;28;20035;-47
2023/12/27 02:25:28;;;;;;;8.07;5.40;;;4.30;68.90;;;-0.84;100.00;96087.38;5027065;28;20036;-51
2023/12/27 02:27:54;;;;;;;10.73;5.90;;;4.20;68.90;;;-0.84;100.00;96075.09;5029796;28;20029;-47
2023/12/27 02:30:23;;;;;;;10.23;5.78;;;4.20;68.90;;;-0.83;100.00;96074.09;5031845;28;20120;-50
2023/12/27 02:32:51;;;;;;;10.35;5.85;;;4.30;69.00;;;-0.83;100.00;96071.47;5032916;28;20433;-48
2023/12/27 02:35:18;;;;;;;11.68;6.13;;;4.30;69.00;;;-0.81;100.00;96059.03;5024610;28;20039;-48
2023/12/27 02:37:45;;;;;;;12.55;6.13;;;4.30;69.00;;;-0.79;100.00;96057.03;5031343;28;20032;-49
2023/12/27 02:40:11;;;;;;;11.23;5.28;;;4.30;69.10;;;-0.79;100.00;96051.81;5032570;28;20044;-50
2023/12/27 02:42:39;;;;;;;7.75;5.65;;;4.30;69.00;;;-0.81;100.00;96055.63;5031494;28;20028;-48
2023/12/27 02:45:07;;;;;;;12.45;5.97;;;4.40;69.10;;;-0.75;100.00;96054.91;5032478;28;20082;-51
2023/12/27 02:47:36;;;;;;;9.63;5.40;;;4.40;69.10;;;-0.75;100.00;96062.75;5040767;28;20386;-47
2023/12/27 02:50:03;;;;;;;8.73;5.18;;;4.40;69.10;;;-0.73;100.00;96061.53;5032258;28;20028;-47
2023/12/27 02:52:29;;;;;;;7.25;4.70;;;4.40;69.10;;;-0.72;100.00;96062.38;5032135;28;20028;-51
2023/12/27 02:54:55;;;;;;;9.00;5.78;;;4.40;69.10;;;-0.78;100.00;96057.88;5031318;28;20052;-49
2023/12/27 02:57:21;;;;;;;9.82;5.57;;;4.40;69.10;;;-0.76;100.00;96061.09;5032441;28;20066;-47
2023/12/27 02:59:47;;;;;;;11.07;5.78;;;4.40;69.80;;;-0.75;100.00;96050.47;5031186;28;20031;-47
2023/12/27 03:02:13;;;;;;;7.88;5.10;;;4.30;68.90;;;-0.81;100.00;96056.44;5032197;28;20464;-48
2023/12/27 03:04:39;;;;;;;8.13;5.43;;;4.30;68.90;;;-0.84;100.00;96042.91;5032022;28;20023;-47
2023/12/27 03:07:07;;;;;;;8.60;5.57;;;4.30;68.90;;;-0.84;100.00;96042.91;5030281;28;20395;-50
2023/12/27 03:09:33;;;;;;;11.07;5.68;;;4.30;68.90;;;-0.85;100.00;96041.25;5031917;28;20078;-49
2023/12/27 03:11:59;;;;;;;11.77;6.15;;;4.30;69.70;;;-0.84;100.00;96048.13;5030706;28;20016;-49
2023/12/27 03:14:25;;;;;;;10.57;6.03;;;4.20;68.90;;;-0.88;100.00;96042.44;5031747;28;20102;-50
2023/12/27 03:16:51;;;;;;;8.77;6.03;;;4.20;68.90;;;-0.90;100.00;96039.22;5031496;28;20025;-54
2023/12/27 03:19:17;;;;;;;12.05;6.32;;;4.20;69.00;;;-0.93;100.00;96031.72;5029928;28;20356;-47
2023/12/27 03:21:43;;;;;;;9.80;5.88;;;4.20;69.00;;;-0.94;100.00;96027.47;5031764;28;20029;-47
2023/12/27 03:24:09;;;;;;;10.52;5.50;;;4.20;69.10;;;-0.95;100.00;96028.47;5026742;28;20028;-47
2023/12/27 03:26:35;;;;;;;9.60;5.95;;;4.20;69.10;;;-0.98;100.00;96026.22;5031908;28;20025;-47
2023/12/27 03:29:01;;;;;;;10.23;5.75;;;4.10;69.00;;;-1.03;100.00;96016.31;5028211;28;20494;-49
2023/12/27 03:31:28;;;;;;;10.93;5.78;;;4.10;69.00;;;-1.04;100.00;96017.28;5030277;28;20028;-50
2023/12/27 03:33:58;;;;;;;10.65;6.28;;;4.10;69.00;;;-1.06;100.00;96015.88;5031327;28;20601;-48
2023/12/27 03:36:27;;;;;;;10.00;5.95;;;4.10;69.10;;;-1.10;100.00;96015.38;5030613;28;20086;-48
2023/12/27 03:38:53;;;;;;;8.60;5.15;;;4.10;69.10;;;-1.14;100.00;96011.53;5031030;28;20052;-47
2023/12/27 03:41:19;;;;;;;7.90;5.03;;;4.00;69.10;;;-1.19;100.00;96012.06;5031365;28;20033;-52
2023/12/27 03:43:45;;;;;;;10.57;5.35;;;4.00;69.00;;;-1.22;100.00;96009.81;5030625;28;20043;-46
2023/12/27 03:46:11;;;;;;;9.57;5.53;;;4.00;69.80;;;-1.25;100.00;96010.19;5031316;28;20078;-50
2023/12/27 03:48:37;;;;;;;7.18;5.25;;;4.00;69.00;;;-1.29;100.00;96013.31;5030484;28;20067;-47
2023/12/27 03:51:04;;;;;;;11.65;5.28;;;3.90;68.90;;;-1.38;100.00;96006.56;5031223;28;20055;-47
2023/12/27 03:53:29;;;;;;;9.75;5.13;;;3.90;68.90;;;-1.36;100.00;96009.81;5030301;28;20116;-46
2023/12/27 03:55:55;;;;;;;8.95;5.32;;;3.90;68.90;;;-1.29;100.00;96010.72;5031280;28;20100;-47
2023/12/27 03:58:21;;;;;;;14.00;6.00;;;3.90;69.00;;;-1.23;100.00;96002.16;5031062;28;20035;-47
2023/12/27 04:00:47;;;;;;;9.35;5.32;;;3.90;69.10;;;-1.20;100.00;96012.25;5030274;28;20547;-47
2023/12/27 04:03:14;;;;;;;12.70;5.85;;;4.00;69.20;;;-1.17;100.00;96010.06;5031071;28;20029;-47
2023/12/27 04:05:40;;;;;;;9.65;5.00;;;4.00;70.10;;;-1.10;100.00;96014.59;5028181;28;20028;-48
2023/12/27 04:08:06;;;;;;;7.28;4.63;;;4.00;69.30;;;-1.07;100.00;96016.84;5029571;28;20429;-47
2023/12/27 04:10:31;;;;;;;8.30;5.30;;;4.00;69.50;;;-1.03;100.00;96010.28;5031061;28;20078;-46
2023/12/27 04:12:58;;;;;;;7.65;5.00;;;4.10;69.50;;;-1.03;100.00;96011.09;5030321;28;20386;-48
2023/12/27 04:15:25;;;;;;;9.45;5.22;;;4.10;69.50;;;-0.96;100.00;96011.97;5030882;28;20119;-47
2023/12/27 04:17:50;;;;;;;6.00;4.47;;;4.20;69.60;;;-0.93;100.00;96018.66;5028721;28;20108;-53
2023/12/27 04:20:16;;;;;;;12.02;5.00;;;4.20;69.50;;;-0.88;100.00;96021.50;5030795;28;20107;-47
2023/12/27 04:22:42;;;;;;;6.35;4.70;;;4.30;69.50;;;-0.90;100.00;96018.28;5030781;28;20490;-48
2023/12/27 04:25:08;;;;;;;7.97;4.85;;;4.30;69.40;;;-0.94;100.00;96010.00;5029831;28;20052;-47
2023/12/27 04:27:34;;;;;;;8.15;4.55;;;4.30;69.40;;;-0.91;100.00;96010.59;5030600;28;20072;-47
2023/12/27 04:30:00;;;;;;;7.55;4.25;;;4.30;69.40;;;-0.90;100.00;96012.25;5029725;28;20020;-47
2023/12/27 04:32:26;;;;;;;5.90;4.13;;;4.30;69.40;;;-0.90;100.00;96020.91;5030617;28;20032;-46
2023/12/27 04:34:52;;;;;;;13.35;4.55;;;4.30;69.30;;;-0.89;100.00;96013.84;5030642;28;20037;-46
2023/12/27 04:37:17;;;;;;;11.02;5.30;;;4.30;69.30;;;-0.93;100.00;96018.66;5029364;28;20020;-48
2023/12/27 04:39:46;;;;;;;9.13;5.10;;;4.30;69.40;;;-0.88;100.00;96020.69;5030425;28;20478;-47
2023/12/27 04:42:12;;;;;;;8.52;5.10;;;4.20;69.30;;;-0.91;100.00;96003.56;5029363;28;20036;-47
2023/12/27 04:44:37;;;;;;;9.73;5.10;;;4.20;69.30;;;-0.90;100.00;95999.16;5030539;28;20032;-47
2023/12/27 04:47:04;;;;;;;8.25;5.15;;;4.20;69.30;;;-0.90;100.00;95999.97;5030182;28;20029;-49
2023/12/27 04:49:30;;;;;;;9.48;5.63;;;4.20;69.30;;;-0.90;100.00;95991.31;5029336;28;20025;-49
2023/12/27 04:51:55;;;;;;;8.05;4.75;;;4.20;69.30;;;-0.89;100.00;96001.59;5030474;28;20067;-47
2023/12/27 04:54:21;;;;;;;7.38;4.75;;;4.20;69.30;;;-0.97;100.00;95999.09;5029361;28;20027;-48
2023/12/27 04:56:47;;;;;;;5.93;4.35;;;4.20;69.30;;;-0.98;100.00;96000.06;5030347;28;20029;-52
2023/12/27 04:59:13;;;;;;;7.72;5.03;;;4.20;69.30;;;-0.96;100.00;96008.53;5030043;28;20035;-52
2023/12/27 05:01:39;;;;;;;9.38;5.15;;;4.10;69.20;;;-0.99;100.00;96016.75;5028814;28;20023;-46
2023/12/27 05:04:04;;;;;;;11.05;5.50;;;4.10;69.30;;;-1.01;100.00;96016.91;5028848;28;20031;-49
2023/12/27 05:06:30;;;;;;;8.32;5.20;;;4.10;69.30;;;-1.00;100.00;96028.22;5029372;28;20033;-46
2023/12/27 05:08:56;;;;;;;7.32;4.78;;;4.10;69.40;;;-1.01;100.00;96013.50;5029982;28;20036;-46
2023/12/27 05:11:23;;;;;;;8.80;4.80;;;4.10;69.30;;;-1.04;100.00;96013.84;5029988;28;20128;-54
2023/12/27 05:13:48;;;;;;;8.63;4.72;;;4.10;69.40;;;-1.04;100.00;96013.84;5030040;28;20021;-48
2023/12/27 05:16:17;;;;;;;8.82;5.07;;;4.10;69.40;;;-1.05;100.00;96015.66;5029945;28;20044;-48
2023/12/27 05:18:45;;;;;;;9.48;5.07;;;4.10;69.50;;;-1.03;100.00;96010.28;5028715;28;20031;-48
2023/12/27 05:21:13;;;;;;;11.45;5.43;;;4.10;69.50;;;-1.08;100.00;95997.72;5030271;28;20345;-48
2023/12/27 05:23:39;;;;;;;9.80;5.45;;;4.10;69.50;;;-1.07;100.00;95999.34;5027742;28;20032;-51
2023/12/27 05:26:06;;;;;;;10.07;5.25;;;4.00;69.50;;;-1.05;100.00;96007.03;5028506;28;20021;-51
2023/12/27 05:28:33;;;;;;;7.95;5.32;;;4.10;69.60;;;-1.02;100.00;96001.44;5029897;28;20029;-47
2023/12/27 05:31:00;;;;;;;11.35;5.38;;;4.10;69.70;;;-1.08;100.00;96010.81;5028871;28;20047;-50
2023/12/27 05:33:26;;;;;;;6.00;4.63;;;4.10;69.70;;;-1.01;100.00;96013.50;5030476;28;20526;-48
2023/12/27 05:35:52;;;;;;;9.00;5.38;;;4.20;69.80;;;-0.99;100.00;96006.28;5029124;28;20107;-47
2023/12/27 05:38:18;;;;;;;7.07;4.60;;;4.20;70.50;;;-0.96;100.00;96005.94;5044339;23;20057;-47
2023/12/27 05:40:44;;;;;;;7.47;4.43;;;4.10;69.60;;;-1.03;100.00;96005.03;5008119;28;20083;-46
2023/12/27 05:43:10;;;;;;;8.98;4.80;;;4.20;69.70;;;-1.00;100.00;96012.53;5004840;28;20081;-46
2023/12/27 05:45:36;;;;;;;7.82;5.18;;;4.20;69.60;;;-0.99;100.00;95995.84;5008893;28;20021;-47
2023/12/27 05:48:03;;;;;;;7.22;4.82;;;4.20;69.60;;;-0.98;100.00;95997.44;5005214;28;20601;-50
2023/12/27 05:50:29;;;;;;;7.28;4.55;;;4.20;69.60;;;-0.99;100.00;95996.63;4984673;28;20084;-47
2023/12/27 05:52:55;;;;;;;7.72;4.53;;;4.20;69.50;;;-0.97;100.00;96001.69;4988438;28;20029;-50
2023/12/27 05:55:21;;;;;;;6.57;4.10;;;4.20;69.40;;;-1.00;100.00;96007.28;4989936;28;20061;-50
2023/12/27 05:57:47;;;;;;;7.78;4.63;;;4.20;69.40;;;-1.04;100.00;96008.63;4992969;28;20033;-46
2023/12/27 06:00:15;;;;;;;8.10;4.30;;;4.20;69.40;;;-1.06;100.00;96013.25;4985137;28;20066;-46
2023/12/27 06:02:42;;;;;;;6.80;4.75;;;4.20;69.40;;;-1.09;100.00;96011.00;4988667;28;20017;-46
2023/12/27 06:05:11;;;;;;;14.73;6.50;;;4.10;69.30;;;-1.12;100.00;96016.59;4982763;28;20054;-47
2023/12/27 06:07:37;;;;;;;8.60;4.25;;;4.10;69.30;;;-1.18;100.00;96018.91;4986646;28;20056;-48
2023/12/27 06:10:05;;;;;;;7.00;4.22;;;4.10;69.30;;;-1.20;100.00;96017.47;4988902;28;20488;-49
2023/12/27 06:12:31;;;;;;;6.95;4.57;;;4.10;69.30;;;-1.28;100.00;96022.81;4987760;28;20506;-46
2023/12/27 06:14:57;;;;;;;5.85;4.07;;;4.00;69.20;;;-1.30;100.00;96020.34;4987888;28;20030;-47
2023/12/27 06:17:23;;;;;;;6.18;4.13;;;4.00;69.20;;;-1.33;100.00;96023.31;4984524;28;20107;-55
2023/12/27 06:19:49;;;;;;;8.48;4.43;;;4.00;69.20;;;-1.38;100.00;96009.16;4985585;28;20511;-47
2023/12/27 06:22:16;;;;;;;8.45;4.38;;;3.90;69.10;;;-1.41;100.00;96012.94;4991452;28;20022;-48
2023/12/27 06:24:41;;;;;;;7.80;4.82;;;3.90;69.20;;;-1.37;100.00;96029.09;4980211;28;20060;-46
2023/12/27 06:27:08;;;;;;;8.98;4.95;;;3.90;69.30;;;-1.34;100.00;96026.13;4989824;28;20104;-46
2023/12/27 06:29:34;;;;;;;8.55;4.38;;;3.90;69.50;;;-1.32;100.00;96027.56;4986129;28;20490;-46
2023/12/27 06:32:00;;;;;;;9.07;4.43;;;3.90;69.60;;;-1.29;100.00;96019.34;4991259;28;20076;-46
2023/12/27 06:34:26;;;;;;;10.15;4.57;;;3.90;69.60;;;-1.26;100.00;96008.53;4984582;28;20032;-49
2023/12/27 06:36:52;;;;;;;6.65;4.78;;;3.90;69.70;;;-1.25;100.00;96017.22;4990737;28;20523;-49
2023/12/27 06:39:18;;;;;;;6.63;4.03;;;3.90;69.70;;;-1.23;100.00;96010.00;4989524;28;20046;-49
2023/12/27 06:41:44;;;;;;;5.72;4.07;;;3.90;69.70;;;-1.27;100.00;96013.97;4991101;28;20025;-46
2023/12/27 06:44:10;;;;;;;6.95;4.65;;;3.90;69.60;;;-1.30;100.00;96020.34;4986198;28;20034;-46
2023/12/27 06:46:36;;;;;;;6.88;4.20;;;3.90;69.50;;;-1.32;100.00;96022.31;4984279;28;20042;-54
2023/12/27 06:49:01;;;;;;;11.88;4.35;;;3.90;69.50;;;-1.32;100.00;96024.13;4986459;28;20013;-46
2023/12/27 06:51:27;;;;;;;7.80;4.00;;;3.80;69.50;;;-1.37;100.00;96031.72;4985817;28;20029;-46
2023/12/27 06:53:53;;;;;;;8.05;4.10;;;3.80;69.50;;;-1.41;100.00;96023.41;4990945;28;20396;-48
2023/12/27 06:56:19;;;;;;;33.03;5.88;;;3.80;69.40;;;-1.45;100.00;96025.56;4984958;28;20022;-48
2023/12/27 06:58:45;;;;;;;9.15;4.28;;;3.80;69.50;;;-1.43;100.00;96036.66;4992579;28;20038;-50
2023/12/27 07:01:11;;;;;;;6.78;4.15;;;3.70;69.50;;;-1.43;100.00;96044.50;4989177;28;21424;-51
2023/12/27 07:03:38;;;;;;;8.60;3.97;;;3.70;69.50;;;-1.42;100.00;96040.88;4992305;28;20108;-50
2023/12/27 07:06:04;;;;;;;9.57;4.38;;;3.70;69.50;;;-1.46;100.00;96033.59;4988443;28;20021;-52
2023/12/27 07:08:31;;;;;;;8.25;4.20;;;3.70;69.50;;;-1.47;100.00;96026.75;4984850;28;20220;-51
2023/12/27 07:10:57;;;;;;;6.90;4.15;;;3.70;69.50;;;-1.55;100.00;96034.66;4946061;28;28207;-50
2023/12/27 07:13:22;;;;;;;9.68;5.15;;;3.70;69.50;;;-1.56;100.00;96033.03;5000365;28;20454;-51
2023/12/27 07:15:48;;;;;;;8.10;4.40;;;3.70;69.40;;;-1.63;100.00;96027.69;4991315;28;20029;-48
2023/12/27 07:18:15;;;;;;;8.77;4.75;;;3.70;69.40;;;-1.60;100.00;96029.16;4985992;28;20331;-49
2023/12/27 07:20:41;;;;;;;12.27;5.15;;;3.70;69.40;;;-1.55;100.00;96029.44;4986993;28;20029;-50
2023/12/27 07:23:07;;;;;;;13.10;4.35;;;3.70;69.50;;;-1.55;100.00;96014.56;4987895;28;20022;-48
2023/12/27 07:25:34;;;;;;;10.20;4.00;;;3.70;69.60;;;-1.60;100.00;96019.50;4987358;28;21912;-50
2023/12/27 07:28:00;;;;;;;7.65;4.15;;;3.70;69.60;;;-1.64;100.00;96019.03;4988327;28;20014;-52
2023/12/27 07:30:25;;;;;;;7.65;4.35;;;3.70;69.60;;;-1.59;100.00;96021.16;4988637;28;20018;-51
2023/12/27 07:32:52;;;;;;;7.13;4.72;;;3.70;69.60;;;-1.55;100.00;96011.94;4986341;28;20048;-53
2023/12/27 07:35:18;;;;;;;7.55;4.22;;;3.70;69.60;;;-1.50;100.00;96009.63;4988778;28;20059;-49
2023/12/27 07:37:46;;;;;;;6.28;4.28;;;3.70;69.60;;;-1.48;100.00;96014.66;4987734;28;20141;-47
2023/12/27 07:40:14;;;;;;;8.73;4.03;;;3.80;69.60;;;-1.44;100.00;96014.13;4985992;28;20417;-48
2023/12/27 07:42:40;;;;;;;6.45;4.45;;;3.80;69.70;;;-1.42;100.00;96012.13;4988509;28;20033;-47
2023/12/27 07:45:07;;;;;;;6.28;3.97;;;3.80;69.60;;;-1.41;100.00;96018.16;4994505;28;20030;-52
2023/12/27 07:47:33;;;;;;;6.13;3.75;;;3.90;69.60;;;-1.35;100.00;96019.25;4988970;28;20445;-52
2023/12/27 07:49:58;;;;;;;5.30;4.00;;;3.90;69.70;;;-1.32;100.00;96013.69;4986999;28;20053;-51
2023/12/27 07:52:24;;;;;;;6.75;3.90;;;4.00;69.70;;;-1.37;100.00;96021.25;4981901;28;20025;-47
2023/12/27 07:54:50;;;;;;;8.10;3.95;;;4.00;69.70;;;-1.26;100.00;96026.03;4981315;28;20041;-49
2023/12/27 07:57:16;;;;;;;14.00;4.50;;;4.10;69.60;;;-1.25;100.00;96035.53;4989991;28;20018;-51
2023/12/27 07:59:42;;;;;;;7.68;3.78;;;4.20;69.80;;;-1.13;100.00;96041.09;4987454;28;20057;-52
2023/12/27 08:02:07;;;;;;;5.22;3.78;;;4.20;69.80;;;-1.02;100.00;96041.47;4987058;28;20109;-49
2023/12/27 08:04:34;;;;;;;8.38;4.88;;;4.30;69.90;;;-0.89;100.00;96047.84;4986872;28;20543;-55
2023/12/27 08:07:00;;;;;;;8.93;4.18;;;4.40;69.90;;;-0.82;100.00;96046.13;4987874;28;20026;-49
2023/12/27 08:09:26;;;;;;;9.13;4.35;;;4.50;70.00;;;-0.79;100.00;96053.63;4964057;28;20503;-50
2023/12/27 08:11:53;;;;;;;9.48;4.10;;;4.60;70.00;;;-0.75;100.00;96049.66;4987274;28;20025;-53
2023/12/27 08:14:19;;;;;;;5.72;3.83;;;4.60;69.90;;;-0.71;100.00;96043.06;4988069;28;20448;-49
2023/12/27 08:16:44;;;;;;;7.97;4.53;;;4.70;69.80;;;-0.71;100.00;96046.50;4986263;28;20053;-53
2023/12/27 08:19:10;;;;;;;6.20;3.80;;;4.70;69.80;;;-0.65;100.00;96054.63;4988882;28;20037;-49
2023/12/27 08:21:36;;;;;;;7.28;4.75;;;4.80;69.80;;;-0.59;100.00;96049.47;4986573;28;20021;-52
2023/12/27 08:24:02;;;;;;;13.32;5.47;;;4.80;69.70;;;-0.53;100.00;96047.91;4987043;28;20025;-55
2023/12/27 08:26:28;;;;;;;13.25;5.25;;;4.80;69.70;;;-0.48;100.00;96056.00;5003466;28;20025;-50
2023/12/27 08:28:54;;;;;;;10.10;4.90;;;4.90;69.70;;;-0.43;100.00;96058.09;4982093;28;20026;-52
2023/12/27 08:31:20;;;;;;;11.48;4.07;;;4.90;69.70;;;-0.45;100.00;96057.44;4984854;28;20034;-47
2023/12/27 08:33:48;;;;;;;12.68;4.97;;;4.90;69.60;;;-0.43;100.00;96051.03;4972084;28;20022;-51
2023/12/27 08:36:14;;;;;;;6.43;4.13;;;5.00;69.60;;;-0.41;100.00;96051.66;4986193;28;20688;-47
2023/12/27 08:38:41;;;;;;;10.15;4.50;;;5.00;69.60;;;-0.38;100.00;96055.72;4988378;28;20057;-48
2023/12/27 08:41:07;;;;;;;9.57;4.57;;;5.00;69.50;;;-0.39;100.00;96054.91;4987096;28;20101;-56
2023/12/27 08:43:35;;;;;;;9.30;3.88;;;5.10;69.50;;;-0.36;100.00;96041.44;4987478;28;20120;-55
2023/12/27 08:46:01;;;;;;;8.15;4.50;;;5.20;69.50;;;-0.28;100.00;96053.63;4986398;28;20024;-57
2023/12/27 08:48:27;;;;;;;8.43;5.15;;;5.20;69.50;;;-0.16;100.00;96053.94;4988851;28;20397;-48
2023/12/27 08:50:53;;;;;;;8.00;4.40;;;5.40;69.60;;;-0.05;100.00;96059.50;4987548;28;20029;-52
2023/12/27 08:53:19;;;;;;;6.03;4.50;;;5.50;69.70;;;0.07;100.00;96053.78;4981438;28;20014;-51
2023/12/27 08:55:45;;;;;;;7.05;4.78;;;5.60;69.70;;;0.13;100.00;96043.38;4987205;28;20117;-49
2023/12/27 08:58:12;;;;;;;7.88;5.72;;;5.60;69.60;;;0.20;100.00;96044.22;4986066;28;20860;-47
2023/12/27 09:00:39;;;;;;;8.05;5.68;;;5.70;69.60;;;0.27;100.00;96046.91;4988976;28;20119;-47
2023/12/27 09:03:05;;;;;;;6.75;5.18;;;5.80;69.50;;;0.34;100.00;96052.19;4989671;28;20021;-54
2023/12/27 09:05:31;;;;;;;6.63;4.68;;;5.90;69.60;;;0.37;100.00;96059.69;4989548;28;20030;-50
2023/12/27 09:07:57;;;;;;;6.95;4.40;;;5.90;69.60;;;0.41;100.00;96047.84;4989357;28;20046;-50
2023/12/27 09:10:23;;;;;;;8.82;4.68;;;6.00;69.50;;;0.49;100.00;96042.44;4989204;28;20076;-51
2023/12/27 09:12:48;;;;;;;8.88;4.65;;;6.10;69.40;;;0.55;100.00;96048.75;4988689;28;20029;-52
2023/12/27 09:15:15;;;;;;;7.88;4.70;;;6.20;69.30;;;0.60;100.00;96041.94;4985929;28;20025;-48
2023/12/27 09:17:41;;;;;;;5.90;3.92;;;6.30;69.20;;;0.71;100.00;96045.81;4992845;28;20025;-48
2023/12/27 09:20:07;;;;;;;6.80;4.47;;;6.50;69.30;;;0.85;100.00;96039.69;4991854;28;20522;-50
2023/12/27 09:22:34;;;;;;;5.80;4.05;;;6.80;69.30;;;1.03;100.00;96054.91;4990458;28;20032;-48
2023/12/27 09:25:00;;;;;;;5.72;3.70;;;6.90;69.10;;;1.24;100.00;96059.25;4992683;28;20028;-52
2023/12/27 09:27:27;;;;;;;4.40;3.30;;;7.20;69.00;;;1.41;100.00;96058.94;4993427;28;20030;-48
2023/12/27 09:29:53;;;;;;;5.20;3.33;;;7.40;68.90;;;1.47;100.00;96058.16;4991019;28;20053;-47
2023/12/27 09:32:19;;;;;;;4.15;3.25;;;7.60;68.60;;;1.57;100.00;96059.44;4987133;28;20019;-51
2023/12/27 09:34:45;;;;;;;7.97;3.05;;;7.70;68.30;;;1.67;100.00;96050.38;4991669;28;20464;-50
2023/12/27 09:37:10;;;;;;;5.18;3.30;;;7.80;67.90;;;1.81;100.00;96046.75;4992643;28;20034;-55
2023/12/27 09:39:37;;;;;;;5.20;3.17;;;7.90;67.60;;;1.92;100.00;96055.91;4991022;28;20057;-48
2023/12/27 09:42:04;;;;;;;8.20;3.78;;;8.10;67.70;;;1.97;100.00;96054.28;4989267;28;20017;-50
2023/12/27 09:44:33;;;;;;;4.70;3.60;;;8.20;67.30;;;2.03;100.00;96050.84;4992086;28;20047;-48
2023/12/27 09:47:02;;;;;;;5.90;3.75;;;8.20;67.00;;;2.12;100.00;96045.41;4991395;28;20388;-51
2023/12/27 09:49:32;;;;;;;4.80;3.35;;;8.30;66.80;;;2.21;100.00;96045.03;4991021;28;20400;-52
2023/12/27 09:52:00;;;;;;;5.13;3.53;;;8.50;66.70;;;2.30;100.00;96043.81;4988891;28;20026;-49
2023/12/27 09:54:26;;;;;;;5.22;3.45;;;8.70;66.60;;;2.37;100.00;96029.88;4984354;28;20022;-51
2023/12/27 09:56:53;;;;;;;4.55;3.55;;;8.90;66.40;;;2.58;100.00;96024.41;4991326;28;20033;-52
2023/12/27 09:59:29;;;;;;;5.65;3.30;;;9.10;66.10;;;2.72;100.00;96022.56;4992387;28;20037;-52
2023/12/27 10:02:00;;;;;;;5.50;3.40;;;9.30;65.70;;;2.91;100.00;96013.81;4990720;28;20029;-51
2023/12/27 10:04:49;;;;;;;4.80;3.53;;;9.50;65.40;;;3.09;100.00;96007.91;4988184;28;20029;-52
2023/12/27 10:07:18;;;;;;;7.07;3.60;;;9.70;65.10;;;3.15;100.00;96001.03;4991373;28;20032;-49
2023/12/27 10:09:46;;;;;;;4.88;3.63;;;9.70;64.90;;;3.21;100.00;96002.81;4992984;28;20121;-51
2023/12/27 10:12:15;;;;;;;6.03;3.60;;;9.80;64.50;;;3.33;100.00;96001.16;4991620;28;20641;-51
2023/12/27 10:14:42;;;;;;;4.60;3.33;;;9.90;64.10;;;3.45;99.54;95996.88;4992585;28;20833;-52